sensor_id;sensor_type;location;lat;lon;timestamp;temperature;humidity
23188;DHT22;11762;59.878;17.686;2022-10-12T12:19:15;10.10;99.90
23188;DHT22;11762;59.878;17.686;2022-10-12T12:22:29;10.10;99.90
23188;DHT22;11762;59.878;17.686;2022-10-12T12:25:28;10.10;99.90
23188;DHT22;11762;59.878;17.686;2022-10-12T12:28:19;10.20;99.90
23188;DHT22;11762;59.878;17.686;2022-10-12T12:31:10;10.20;99.90
23188;DHT22;11762;59.878;17.686;2022-10-12T12:34:04;10.30;99.90
23188;DHT22;11762;59.878;17.686;2022-10-12T12:36:53;10.30;99.90
23188;DHT22;11762;59.878;17.686;2022-10-12T12:39:42;10.40;99.90
23188;DHT22;11762;59.878;17.686;2022-10-12T12:42:30;10.40;99.90
23188;DHT22;11762;59.878;17.686;2022-10-12T12:45:50;10.40;99.90
23188;DHT22;11762;59.878;17.686;2022-10-12T12:49:02;10.50;99.90
23188;DHT22;11762;59.878;17.686;2022-10-12T12:51:53;10.40;99.90
23188;DHT22;11762;59.878;17.686;2022-10-12T12:54:55;10.40;99.90
23188;DHT22;11762;59.878;17.686;2022-10-12T12:58:01;10.40;99.90
23188;DHT22;11762;59.878;17.686;2022-10-12T13:10:47;10.20;99.90
23188;DHT22;11762;59.878;17.686;2022-10-12T13:13:49;10.20;99.90
23188;DHT22;11762;59.878;17.686;2022-10-12T13:16:57;10.20;99.90
23188;DHT22;11762;59.878;17.686;2022-10-12T13:19:47;10.20;99.90
23188;DHT22;11762;59.878;17.686;2022-10-12T13:22:38;10.10;99.90
23188;DHT22;11762;59.878;17.686;2022-10-12T13:25:30;10.10;99.90
23188;DHT22;11762;59.878;17.686;2022-10-12T13:28:21;10.00;99.90
23188;DHT22;11762;59.878;17.686;2022-10-12T13:31:17;10.10;99.90
23188;DHT22;11762;59.878;17.686;2022-10-12T13:34:11;10.00;99.90
23188;DHT22;11762;59.878;17.686;2022-10-12T13:37:04;10.00;99.90
23188;DHT22;11762;59.878;17.686;2022-10-12T13:39:57;10.10;99.90
23188;DHT22;11762;59.878;17.686;2022-10-12T13:42:44;10.10;99.90
23188;DHT22;11762;59.878;17.686;2022-10-12T13:45:31;10.10;99.90
23188;DHT22;11762;59.878;17.686;2022-10-12T13:48:21;10.10;99.90
23188;DHT22;11762;59.878;17.686;2022-10-12T13:51:21;10.10;99.90
23188;DHT22;11762;59.878;17.686;2022-10-12T13:54:18;10.10;99.90
23188;DHT22;11762;59.878;17.686;2022-10-12T13:57:16;10.10;99.90
23188;DHT22;11762;59.878;17.686;2022-10-12T14:00:09;10.10;99.90
23188;DHT22;11762;59.878;17.686;2022-10-12T14:03:04;10.10;99.90
23188;DHT22;11762;59.878;17.686;2022-10-12T14:05:52;10.00;99.90
23188;DHT22;11762;59.878;17.686;2022-10-12T14:08:39;10.00;99.90
23188;DHT22;11762;59.878;17.686;2022-10-12T14:11:27;9.90;99.90
23188;DHT22;11762;59.878;17.686;2022-10-12T14:14:30;9.90;99.90
23188;DHT22;11762;59.878;17.686;2022-10-12T14:17:19;9.80;99.90
23188;DHT22;11762;59.878;17.686;2022-10-12T14:20:15;9.70;99.90
23188;DHT22;11762;59.878;17.686;2022-10-12T14:23:09;9.60;99.90
23188;DHT22;11762;59.878;17.686;2022-10-12T14:25:58;9.60;99.90
23188;DHT22;11762;59.878;17.686;2022-10-12T14:28:45;9.60;99.90
23188;DHT22;11762;59.878;17.686;2022-10-12T14:31:51;9.50;99.90
23188;DHT22;11762;59.878;17.686;2022-10-12T14:34:41;9.40;99.90
23188;DHT22;11762;59.878;17.686;2022-10-12T14:37:29;9.30;99.90
23188;DHT22;11762;59.878;17.686;2022-10-12T14:40:35;9.30;99.90
23188;DHT22;11762;59.878;17.686;2022-10-12T14:43:26;9.20;99.90
23188;DHT22;11762;59.878;17.686;2022-10-12T14:46:14;9.10;99.90
23188;DHT22;11762;59.878;17.686;2022-10-12T14:49:02;9.10;99.90
23188;DHT22;11762;59.878;17.686;2022-10-12T14:51:51;9.00;99.90
23188;DHT22;11762;59.878;17.686;2022-10-12T14:54:39;8.90;99.90
23188;DHT22;11762;59.878;17.686;2022-10-12T14:57:29;8.80;99.90
23188;DHT22;11762;59.878;17.686;2022-10-12T15:00:18;8.80;99.90
23188;DHT22;11762;59.878;17.686;2022-10-12T15:03:06;8.60;99.90
23188;DHT22;11762;59.878;17.686;2022-10-12T15:05:54;8.60;99.90
23188;DHT22;11762;59.878;17.686;2022-10-12T15:08:42;8.50;99.90
23188;DHT22;11762;59.878;17.686;2022-10-12T15:11:29;8.40;99.90
23188;DHT22;11762;59.878;17.686;2022-10-12T15:14:16;8.30;99.90
23188;DHT22;11762;59.878;17.686;2022-10-12T15:17:04;8.30;99.90
23188;DHT22;11762;59.878;17.686;2022-10-12T15:19:51;8.20;99.90
23188;DHT22;11762;59.878;17.686;2022-10-12T15:22:40;8.10;99.90
23188;DHT22;11762;59.878;17.686;2022-10-12T15:25:35;8.10;99.90
23188;DHT22;11762;59.878;17.686;2022-10-12T15:28:23;8.00;99.90
23188;DHT22;11762;59.878;17.686;2022-10-12T15:31:14;8.00;99.90
23188;DHT22;11762;59.878;17.686;2022-10-12T15:34:01;7.90;99.90
23188;DHT22;11762;59.878;17.686;2022-10-12T15:36:48;7.80;99.90
23188;DHT22;11762;59.878;17.686;2022-10-12T15:39:37;7.80;99.90
23188;DHT22;11762;59.878;17.686;2022-10-12T15:42:24;7.80;99.90
23188;DHT22;11762;59.878;17.686;2022-10-12T15:45:16;7.70;99.90
23188;DHT22;11762;59.878;17.686;2022-10-12T15:48:05;7.60;99.90
23188;DHT22;11762;59.878;17.686;2022-10-12T15:50:52;7.50;99.90
23188;DHT22;11762;59.878;17.686;2022-10-12T15:53:39;7.40;99.90
23188;DHT22;11762;59.878;17.686;2022-10-12T15:56:28;7.30;99.90
23188;DHT22;11762;59.878;17.686;2022-10-12T15:59:15;7.30;99.90
23188;DHT22;11762;59.878;17.686;2022-10-12T16:02:02;7.20;99.90
23188;DHT22;11762;59.878;17.686;2022-10-12T16:04:50;7.10;99.90
23188;DHT22;11762;59.878;17.686;2022-10-12T16:07:37;7.00;99.90
23188;DHT22;11762;59.878;17.686;2022-10-12T16:10:28;6.90;99.90
23188;DHT22;11762;59.878;17.686;2022-10-12T16:13:17;6.90;99.90
23188;DHT22;11762;59.878;17.686;2022-10-12T16:16:05;6.80;99.90
23188;DHT22;11762;59.878;17.686;2022-10-12T16:18:53;6.70;99.90
23188;DHT22;11762;59.878;17.686;2022-10-12T16:21:40;6.70;99.90
23188;DHT22;11762;59.878;17.686;2022-10-12T16:24:27;6.70;99.90
23188;DHT22;11762;59.878;17.686;2022-10-12T16:27:14;6.60;99.90
23188;DHT22;11762;59.878;17.686;2022-10-12T16:30:04;6.60;99.90
23188;DHT22;11762;59.878;17.686;2022-10-12T16:32:52;6.60;99.90
23188;DHT22;11762;59.878;17.686;2022-10-12T16:35:40;6.60;99.90
23188;DHT22;11762;59.878;17.686;2022-10-12T16:38:27;6.50;99.90
23188;DHT22;11762;59.878;17.686;2022-10-12T16:41:15;6.50;99.90
23188;DHT22;11762;59.878;17.686;2022-10-12T16:44:03;6.40;99.90
23188;DHT22;11762;59.878;17.686;2022-10-12T16:46:52;6.40;99.90
23188;DHT22;11762;59.878;17.686;2022-10-12T16:49:39;6.30;99.90
23188;DHT22;11762;59.878;17.686;2022-10-12T16:52:27;6.30;99.90
23188;DHT22;11762;59.878;17.686;2022-10-12T16:55:14;6.30;99.90
23188;DHT22;11762;59.878;17.686;2022-10-12T16:58:02;6.20;99.90
23188;DHT22;11762;59.878;17.686;2022-10-12T17:00:49;6.20;99.90
23188;DHT22;11762;59.878;17.686;2022-10-12T17:03:38;6.20;99.90
23188;DHT22;11762;59.878;17.686;2022-10-12T17:06:25;6.10;99.90
23188;DHT22;11762;59.878;17.686;2022-10-12T17:09:13;6.10;99.90
23188;DHT22;11762;59.878;17.686;2022-10-12T17:12:01;6.20;99.90
23188;DHT22;11762;59.878;17.686;2022-10-12T17:14:49;6.20;99.90
23188;DHT22;11762;59.878;17.686;2022-10-12T17:17:36;6.20;99.90
23188;DHT22;11762;59.878;17.686;2022-10-12T17:20:25;6.10;99.90
23188;DHT22;11762;59.878;17.686;2022-10-12T17:23:12;6.10;99.90
23188;DHT22;11762;59.878;17.686;2022-10-12T17:25:59;6.00;99.90
23188;DHT22;11762;59.878;17.686;2022-10-12T17:28:46;5.90;99.90
23188;DHT22;11762;59.878;17.686;2022-10-12T17:31:34;5.90;99.90
23188;DHT22;11762;59.878;17.686;2022-10-12T17:34:23;5.80;99.90
23188;DHT22;11762;59.878;17.686;2022-10-12T17:37:12;5.80;99.90
23188;DHT22;11762;59.878;17.686;2022-10-12T17:40:00;5.70;99.90
23188;DHT22;11762;59.878;17.686;2022-10-12T17:42:47;5.70;99.90
23188;DHT22;11762;59.878;17.686;2022-10-12T17:45:38;5.70;99.90
23188;DHT22;11762;59.878;17.686;2022-10-12T17:48:25;5.80;99.90
23188;DHT22;11762;59.878;17.686;2022-10-12T17:51:12;5.80;99.90
23188;DHT22;11762;59.878;17.686;2022-10-12T17:54:02;5.70;99.90
23188;DHT22;11762;59.878;17.686;2022-10-12T17:56:50;5.60;99.90
23188;DHT22;11762;59.878;17.686;2022-10-12T17:59:37;5.50;99.90
23188;DHT22;11762;59.878;17.686;2022-10-12T18:02:24;5.40;99.90
23188;DHT22;11762;59.878;17.686;2022-10-12T18:05:11;5.40;99.90
23188;DHT22;11762;59.878;17.686;2022-10-12T18:07:59;5.30;99.90
23188;DHT22;11762;59.878;17.686;2022-10-12T18:10:47;5.30;99.90
23188;DHT22;11762;59.878;17.686;2022-10-12T18:13:36;5.20;99.90
23188;DHT22;11762;59.878;17.686;2022-10-12T18:16:24;5.20;99.90
23188;DHT22;11762;59.878;17.686;2022-10-12T18:19:12;5.10;99.90
23188;DHT22;11762;59.878;17.686;2022-10-12T18:21:59;5.00;99.90
23188;DHT22;11762;59.878;17.686;2022-10-12T18:24:46;4.90;99.90
23188;DHT22;11762;59.878;17.686;2022-10-12T18:27:35;4.90;99.90
23188;DHT22;11762;59.878;17.686;2022-10-12T18:30:22;4.80;99.90
23188;DHT22;11762;59.878;17.686;2022-10-12T18:33:09;4.70;99.90
23188;DHT22;11762;59.878;17.686;2022-10-12T18:36:00;4.70;99.90
23188;DHT22;11762;59.878;17.686;2022-10-12T18:38:48;4.60;99.90
23188;DHT22;11762;59.878;17.686;2022-10-12T18:41:35;4.60;99.90
23188;DHT22;11762;59.878;17.686;2022-10-12T18:44:24;4.60;99.90
23188;DHT22;11762;59.878;17.686;2022-10-12T18:47:11;4.60;99.90
23188;DHT22;11762;59.878;17.686;2022-10-12T18:49:58;4.50;99.90
23188;DHT22;11762;59.878;17.686;2022-10-12T18:52:46;4.50;99.90
23188;DHT22;11762;59.878;17.686;2022-10-12T18:55:35;4.50;99.90
23188;DHT22;11762;59.878;17.686;2022-10-12T18:58:23;4.50;99.90
23188;DHT22;11762;59.878;17.686;2022-10-12T19:01:14;4.40;99.90
23188;DHT22;11762;59.878;17.686;2022-10-12T19:04:03;4.40;99.90
23188;DHT22;11762;59.878;17.686;2022-10-12T19:06:50;4.40;99.90
23188;DHT22;11762;59.878;17.686;2022-10-12T19:09:37;4.40;99.90
23188;DHT22;11762;59.878;17.686;2022-10-12T19:12:25;4.30;99.90
23188;DHT22;11762;59.878;17.686;2022-10-12T19:15:12;4.30;99.90
23188;DHT22;11762;59.878;17.686;2022-10-12T19:18:00;4.30;99.90
23188;DHT22;11762;59.878;17.686;2022-10-12T19:20:48;4.20;99.90
23188;DHT22;11762;59.878;17.686;2022-10-12T19:23:35;4.20;99.90
23188;DHT22;11762;59.878;17.686;2022-10-12T19:26:25;4.20;99.90
23188;DHT22;11762;59.878;17.686;2022-10-12T19:29:13;4.20;99.90
23188;DHT22;11762;59.878;17.686;2022-10-12T19:32:00;4.20;99.90
23188;DHT22;11762;59.878;17.686;2022-10-12T19:34:51;4.20;99.90
23188;DHT22;11762;59.878;17.686;2022-10-12T19:37:38;4.20;99.90
23188;DHT22;11762;59.878;17.686;2022-10-12T19:40:25;4.20;99.90
23188;DHT22;11762;59.878;17.686;2022-10-12T19:43:12;4.20;99.90
23188;DHT22;11762;59.878;17.686;2022-10-12T19:46:01;4.20;99.90
23188;DHT22;11762;59.878;17.686;2022-10-12T19:48:51;4.10;99.90
23188;DHT22;11762;59.878;17.686;2022-10-12T19:51:41;4.20;99.90
23188;DHT22;11762;59.878;17.686;2022-10-12T19:54:28;4.20;99.90
23188;DHT22;11762;59.878;17.686;2022-10-12T19:57:15;4.10;99.90
23188;DHT22;11762;59.878;17.686;2022-10-12T20:00:03;4.10;99.90
23188;DHT22;11762;59.878;17.686;2022-10-12T20:02:51;4.10;99.90
23188;DHT22;11762;59.878;17.686;2022-10-12T20:05:43;4.20;99.90
23188;DHT22;11762;59.878;17.686;2022-10-12T20:08:32;4.20;99.90
23188;DHT22;11762;59.878;17.686;2022-10-12T20:11:21;4.30;99.90
23188;DHT22;11762;59.878;17.686;2022-10-12T20:14:09;4.30;99.90
23188;DHT22;11762;59.878;17.686;2022-10-12T20:16:56;4.30;99.90
23188;DHT22;11762;59.878;17.686;2022-10-12T20:19:44;4.30;99.90
23188;DHT22;11762;59.878;17.686;2022-10-12T20:22:31;4.30;99.90
23188;DHT22;11762;59.878;17.686;2022-10-12T20:25:20;4.30;99.90
23188;DHT22;11762;59.878;17.686;2022-10-12T20:28:07;4.20;99.90
23188;DHT22;11762;59.878;17.686;2022-10-12T20:30:57;4.30;99.90
23188;DHT22;11762;59.878;17.686;2022-10-12T20:33:48;4.30;99.90
23188;DHT22;11762;59.878;17.686;2022-10-12T20:36:36;4.30;99.90
23188;DHT22;11762;59.878;17.686;2022-10-12T20:39:23;4.30;99.90
23188;DHT22;11762;59.878;17.686;2022-10-12T20:42:12;4.30;99.90
23188;DHT22;11762;59.878;17.686;2022-10-12T20:44:59;4.30;99.90
23188;DHT22;11762;59.878;17.686;2022-10-12T20:47:47;4.30;99.90
23188;DHT22;11762;59.878;17.686;2022-10-12T20:50:34;4.20;99.90
23188;DHT22;11762;59.878;17.686;2022-10-12T20:53:23;4.20;99.90
23188;DHT22;11762;59.878;17.686;2022-10-12T20:56:10;4.10;99.90
23188;DHT22;11762;59.878;17.686;2022-10-12T20:58:59;4.00;99.90
23188;DHT22;11762;59.878;17.686;2022-10-12T21:01:47;4.00;99.90
23188;DHT22;11762;59.878;17.686;2022-10-12T21:04:34;4.10;99.90
23188;DHT22;11762;59.878;17.686;2022-10-12T21:07:21;4.30;99.90
23188;DHT22;11762;59.878;17.686;2022-10-12T21:10:09;4.40;99.90
23188;DHT22;11762;59.878;17.686;2022-10-12T21:12:56;4.60;99.90
23188;DHT22;11762;59.878;17.686;2022-10-12T21:15:50;4.70;99.90
23188;DHT22;11762;59.878;17.686;2022-10-12T21:18:37;4.90;99.90
23188;DHT22;11762;59.878;17.686;2022-10-12T21:21:24;5.00;99.90
23188;DHT22;11762;59.878;17.686;2022-10-12T21:24:12;5.10;99.90
23188;DHT22;11762;59.878;17.686;2022-10-12T21:26:59;5.20;99.90
23188;DHT22;11762;59.878;17.686;2022-10-12T21:29:47;5.40;99.90
23188;DHT22;11762;59.878;17.686;2022-10-12T21:32:35;5.50;99.90
23188;DHT22;11762;59.878;17.686;2022-10-12T21:35:22;5.60;99.90
23188;DHT22;11762;59.878;17.686;2022-10-12T21:38:10;5.70;99.90
23188;DHT22;11762;59.878;17.686;2022-10-12T21:40:57;5.80;99.90
23188;DHT22;11762;59.878;17.686;2022-10-12T21:43:45;5.90;99.90
23188;DHT22;11762;59.878;17.686;2022-10-12T21:46:34;6.00;99.90
23188;DHT22;11762;59.878;17.686;2022-10-12T21:49:23;6.10;99.90
23188;DHT22;11762;59.878;17.686;2022-10-12T21:52:10;6.10;99.90
23188;DHT22;11762;59.878;17.686;2022-10-12T21:54:57;6.20;99.90
23188;DHT22;11762;59.878;17.686;2022-10-12T21:57:45;6.20;99.90
23188;DHT22;11762;59.878;17.686;2022-10-12T22:00:32;6.30;99.90
23188;DHT22;11762;59.878;17.686;2022-10-12T22:03:19;6.30;99.90
23188;DHT22;11762;59.878;17.686;2022-10-12T22:06:10;6.40;99.90
23188;DHT22;11762;59.878;17.686;2022-10-12T22:08:59;6.40;99.90
23188;DHT22;11762;59.878;17.686;2022-10-12T22:11:47;6.40;99.90
23188;DHT22;11762;59.878;17.686;2022-10-12T22:14:35;6.40;99.90
23188;DHT22;11762;59.878;17.686;2022-10-12T22:17:22;6.40;99.90
23188;DHT22;11762;59.878;17.686;2022-10-12T22:20:10;6.40;99.90
23188;DHT22;11762;59.878;17.686;2022-10-12T22:22:58;6.50;99.90
23188;DHT22;11762;59.878;17.686;2022-10-12T22:25:46;6.50;99.90
23188;DHT22;11762;59.878;17.686;2022-10-12T22:28:33;6.60;99.90
23188;DHT22;11762;59.878;17.686;2022-10-12T22:31:22;6.60;99.90
23188;DHT22;11762;59.878;17.686;2022-10-12T22:34:10;6.60;99.90
23188;DHT22;11762;59.878;17.686;2022-10-12T22:36:57;6.60;99.90
23188;DHT22;11762;59.878;17.686;2022-10-12T22:39:46;6.60;99.90
23188;DHT22;11762;59.878;17.686;2022-10-12T22:42:33;6.60;99.90
23188;DHT22;11762;59.878;17.686;2022-10-12T22:45:20;6.50;99.90
23188;DHT22;11762;59.878;17.686;2022-10-12T22:48:09;6.50;99.90
23188;DHT22;11762;59.878;17.686;2022-10-12T22:50:57;6.50;99.90
23188;DHT22;11762;59.878;17.686;2022-10-12T22:53:44;6.50;99.90
23188;DHT22;11762;59.878;17.686;2022-10-12T22:56:33;6.50;99.90
23188;DHT22;11762;59.878;17.686;2022-10-12T22:59:20;6.50;99.90
23188;DHT22;11762;59.878;17.686;2022-10-12T23:02:07;6.40;99.90
23188;DHT22;11762;59.878;17.686;2022-10-12T23:04:54;6.30;99.90
23188;DHT22;11762;59.878;17.686;2022-10-12T23:07:42;6.40;99.90
23188;DHT22;11762;59.878;17.686;2022-10-12T23:10:29;6.40;99.90
23188;DHT22;11762;59.878;17.686;2022-10-12T23:13:18;6.40;99.90
23188;DHT22;11762;59.878;17.686;2022-10-12T23:16:07;6.40;99.90
23188;DHT22;11762;59.878;17.686;2022-10-12T23:18:55;6.50;99.90
23188;DHT22;11762;59.878;17.686;2022-10-12T23:21:43;6.40;99.90
23188;DHT22;11762;59.878;17.686;2022-10-12T23:24:32;6.40;99.90
23188;DHT22;11762;59.878;17.686;2022-10-12T23:27:19;6.40;99.90
23188;DHT22;11762;59.878;17.686;2022-10-12T23:30:09;6.40;99.90
23188;DHT22;11762;59.878;17.686;2022-10-12T23:32:56;6.50;99.90
23188;DHT22;11762;59.878;17.686;2022-10-12T23:35:43;6.50;99.90
23188;DHT22;11762;59.878;17.686;2022-10-12T23:38:32;6.50;99.90
23188;DHT22;11762;59.878;17.686;2022-10-12T23:41:19;6.50;99.90
23188;DHT22;11762;59.878;17.686;2022-10-12T23:44:07;6.50;99.90
23188;DHT22;11762;59.878;17.686;2022-10-12T23:46:55;6.60;99.90
23188;DHT22;11762;59.878;17.686;2022-10-12T23:49:43;6.60;99.90
23188;DHT22;11762;59.878;17.686;2022-10-12T23:52:30;6.60;99.90
23188;DHT22;11762;59.878;17.686;2022-10-12T23:55:17;6.60;99.90
23188;DHT22;11762;59.878;17.686;2022-10-12T23:58:04;6.60;99.90
